Etusivu
METAR-TAF:

METAR-TAF

Lentoasemat :

Algona, Iowa, Yhdysvallat

Leveyspiiri: 43-05N, Pituuspiiri: 094-16W, korkeus merenpinnasta: 372 m

Tämänhetkinen sää

Tämä raportti tehtiin 29 minuuttia sitten, kello 09.55 UTC
Tuuli 10 kn luoteesta puuskistuen 16 kn:hen
Lämpötila 5°C
Kosteus 70%
Ilmanpaine 1017 hPa
Näkyvyys: 16.1 km
selkeää

METAR: KAXA 260955Z AUTO 32010G16KT 10SM CLR 05/M00 A3002 RMK AO2 PWINO

Aika: 05:24 (10:24 UTC)


TAF: puuttuu

Säähavainnot ja -ennusteet yli 4000 lentoasemalta (METAR- ja TAF-raportit).

Käytössä olevat sääasemat on merkitty karttaan keltaisilla ja punaisilla pisteillä.

Aseta hiiri pisteen päälle nähdäksesi sääaseman nimen.

Klikkaa sitten nähdäksesi säähavainnot ja -ennusteet.

Kartan vaihtaminen: klikkaa mustalla rastilla varustettuja vihreitä pisteitä, niin voit zoomata sisään; viivalla varustettua vihreää pistettä, niin voit zoomata ulos tai vihreitä nuolia, niin pääset viereisille kartoille.


METAR-TAF: